Guide — WDE7328 — position and weather

sailwx.info

Track history (hours):
 
Tides and Currents Weather Stations Pressure Air Temp Water Temp Dewpoint Dewpoint Depression Visibility Wind Speed Wind Dir Waves Ship Positions

Guide

Owner: Crowley Marine Services, SEATTLE, WA. More information available from US FCC via Universal Licensing System and Coast Guard Vessel Documentation Center.

Last reported at 2017-Aug-18 03:00 UTC. Time now 2017-Aug-18 03:05 UTC.
Position N 47°15' W 122°26'.

Length 34 m; draft 5.1 m.

Type: Tug. MMSI: 366759530.

Date/timePositionNaut miles runAvg speedWind from/ knotsBaromVisibWave heightAir tempDewpointWater temp
2017-Aug-18 03:00N 47°15' W 122°26'0 0.0
2017-Aug-18 02:30N 47°15' W 122°26'0 0.0
2017-Aug-18 02:00N 47°15' W 122°26'0 0.0
2017-Aug-18 01:30N 47°15' W 122°26'0 0.0
2017-Aug-18 01:00N 47°15' W 122°26'0 0.0
2017-Aug-18 00:30N 47°15' W 122°26'0 0.0
2017-Aug-18 00:00N 47°15' W 122°26'1 2.4
2017-Aug-17 23:31N 47°16' W 122°26'0 0.6
2017-Aug-17 23:00N 47°17' W 122°25'1 0.3
2017-Aug-17 20:52N 47°16' W 122°24'1 2.3
2017-Aug-17 20:30N 47°16' W 122°24'1 0.9
2017-Aug-17 19:51N 47°16' W 122°23'0 1.4
2017-Aug-17 19:30N 47°16' W 122°23'2 3.7
2017-Aug-17 19:00N 47°15' W 122°26'0 0.0
2017-Aug-17 18:30N 47°15' W 122°26'0 0.0
2017-Aug-17 18:00N 47°15' W 122°26'0 0.0
2017-Aug-17 15:47N 47°15' W 122°26'0 0.0
2017-Aug-17 15:30N 47°15' W 122°26'0 0.0
2017-Aug-17 15:00N 47°15' W 122°26'0 0.0
2017-Aug-17 14:30N 47°15' W 122°26'0 0.0
2017-Aug-17 13:56N 47°15' W 122°26'0 0.0
2017-Aug-17 13:30N 47°15' W 122°26'0 0.0
2017-Aug-17 13:00N 47°15' W 122°26'0 0.0
2017-Aug-17 12:30N 47°15' W 122°26'0 0.0
2017-Aug-17 11:52N 47°15' W 122°26'0 0.0
2017-Aug-17 11:29N 47°15' W 122°26'0 0.0
2017-Aug-17 11:00N 47°15' W 122°26'0 0.0
2017-Aug-17 10:30N 47°15' W 122°26'0 0.0
2017-Aug-17 10:00N 47°15' W 122°26'0 0.0
2017-Aug-17 09:30N 47°15' W 122°26'0 0.0
2017-Aug-17 09:00N 47°15' W 122°26'0 0.0
2017-Aug-17 08:30N 47°15' W 122°26'0 0.0
2017-Aug-17 08:00N 47°15' W 122°26'0 0.0
2017-Aug-17 07:30N 47°15' W 122°26'0 0.0
2017-Aug-17 07:00N 47°15' W 122°26'0 0.0
2017-Aug-17 06:30N 47°15' W 122°26'0 0.0
2017-Aug-17 06:00N 47°15' W 122°26'0 0.0
2017-Aug-17 05:30N 47°15' W 122°26'0 0.0
2017-Aug-17 05:00N 47°15' W 122°26'0 0.0
2017-Aug-17 04:30N 47°15' W 122°26'0 0.0
2017-Aug-17 04:00N 47°15' W 122°26'2 3.9
2017-Aug-17 03:30N 47°16' W 122°23'0 0.4
2017-Aug-17 02:58N 47°16' W 122°23'1 2.0
2017-Aug-17 02:29N 47°16' W 122°24'2 3.8
2017-Aug-17 02:00N 47°17' W 122°26'1 2.5
2017-Aug-17 01:30N 47°16' W 122°25'1 1.0
2017-Aug-17 01:00N 47°17' W 122°25'1 1.2
2017-Aug-17 00:30N 47°16' W 122°25'0 1.0
2017-Aug-17 00:00N 47°17' W 122°25'2 3.5
2017-Aug-16 23:30N 47°15' W 122°23'0 0.2
2017-Aug-16 22:59N 47°15' W 122°23'0 0.0
2017-Aug-16 22:30N 47°16' W 122°23'3 5.7
2017-Aug-16 22:00N 47°18' W 122°26'0 0.0
2017-Aug-16 21:29N 47°18' W 122°26'0 0.0
2017-Aug-16 21:00N 47°18' W 122°26'0 0.0
2017-Aug-16 20:30N 47°18' W 122°26'0 0.0
2017-Aug-16 20:00N 47°18' W 122°26'0 0.0
2017-Aug-16 19:28N 47°18' W 122°26'0 0.0
2017-Aug-16 18:57N 47°18' W 122°26'0 0.1
2017-Aug-16 18:28N 47°18' W 122°26'0 0.0
2017-Aug-16 18:00N 47°18' W 122°26'0 0.0
2017-Aug-16 17:30N 47°18' W 122°26'0 0.1
2017-Aug-16 17:00N 47°18' W 122°26'0 0.1
2017-Aug-16 16:30N 47°18' W 122°26'0 0.0
2017-Aug-16 16:00N 47°18' W 122°26'0 0.3
2017-Aug-16 15:31N 47°18' W 122°26'3 5.8
2017-Aug-16 15:00N 47°16' W 122°23'0 0.5
2017-Aug-16 14:30N 47°15' W 122°23'2 3.6
2017-Aug-16 14:00N 47°17' W 122°25'1 2.3
2017-Aug-16 13:30N 47°18' W 122°26'0 0.3
2017-Aug-16 13:00N 47°17' W 122°26'1 2.6
2017-Aug-16 12:30N 47°16' W 122°25'0 0.2
2017-Aug-16 12:00N 47°16' W 122°25'1 2.1
2017-Aug-16 11:30N 47°17' W 122°26'0 0.7
2017-Aug-16 11:00N 47°17' W 122°26'2 3.5
2017-Aug-16 10:30N 47°16' W 122°24'1 1.5
2017-Aug-16 10:00N 47°16' W 122°23'1 1.1
2017-Aug-16 09:30N 47°16' W 122°23'2 4.6
2017-Aug-16 09:00N 47°17' W 122°26'1 2.5
2017-Aug-16 08:30N 47°17' W 122°25'0 0.3
2017-Aug-16 08:00N 47°17' W 122°25'1 2.4
2017-Aug-16 07:30N 47°17' W 122°26'1 3.0
2017-Aug-16 07:00N 47°16' W 122°25'0 0.8
2017-Aug-16 06:30N 47°16' W 122°25'1 2.1
2017-Aug-16 06:00N 47°17' W 122°26'1 1.3
2017-Aug-16 05:30N 47°17' W 122°26'1 2.7
2017-Aug-16 05:00N 47°15' W 122°26'0 0.0
2017-Aug-16 04:30N 47°15' W 122°26'0 0.0
2017-Aug-16 04:00N 47°15' W 122°26'0 0.0
2017-Aug-16 03:30N 47°15' W 122°26'0 0.0
2017-Aug-16 03:00N 47°15' W 122°26'0 0.0
2017-Aug-16 02:29N 47°15' W 122°26'0 0.0
2017-Aug-16 02:00N 47°15' W 122°26'0 0.0
2017-Aug-16 01:30N 47°15' W 122°26'1 2.3
2017-Aug-16 01:00N 47°16' W 122°25'0 0.6
2017-Aug-16 00:30N 47°16' W 122°25'2 3.2
2017-Aug-16 00:00N 47°18' W 122°26'0 0.0
2017-Aug-15 23:30N 47°18' W 122°26'0 0.0
2017-Aug-15 22:56N 47°18' W 122°26'0 0.0
2017-Aug-15 22:30N 47°18' W 122°26'0 0.0
2017-Aug-15 21:59N 47°18' W 122°26'0 0.0
2017-Aug-15 21:29N 47°18' W 122°26'0 0.0
2017-Aug-15 20:58N 47°18' W 122°26'0 0.1
2017-Aug-15 20:29N 47°18' W 122°26'0 0.1
2017-Aug-15 20:00N 47°18' W 122°26'0 0.0
2017-Aug-15 19:29N 47°18' W 122°26'0 0.0
2017-Aug-15 19:00N 47°18' W 122°26'0 0.0
2017-Aug-15 18:30N 47°18' W 122°26'0 0.0
2017-Aug-15 18:00N 47°18' W 122°26'0 0.0
2017-Aug-15 17:30N 47°18' W 122°26'0 0.0
2017-Aug-15 16:47N 47°18' W 122°26'0 0.0
2017-Aug-15 16:30N 47°18' W 122°26'0 0.0
2017-Aug-15 16:01N 47°18' W 122°26'0 0.0
2017-Aug-15 15:28N 47°18' W 122°26'0 0.0
2017-Aug-15 15:00N 47°18' W 122°26'0 0.0
2017-Aug-15 14:30N 47°18' W 122°26'0 0.0
2017-Aug-15 13:58N 47°18' W 122°26'0 0.1
2017-Aug-15 13:31N 47°18' W 122°26'0 0.0
2017-Aug-15 13:00N 47°18' W 122°26'1 1.4
2017-Aug-15 12:30N 47°17' W 122°26'1 2.1
2017-Aug-15 12:00N 47°16' W 122°25'1 1.6
2017-Aug-15 11:30N 47°17' W 122°26'1 1.6
2017-Aug-15 11:00N 47°16' W 122°25'0 0.0
2017-Aug-15 10:30N 47°16' W 122°25'0 0.0
2017-Aug-15 10:01N 47°16' W 122°25'1 1.5
2017-Aug-15 09:31N 47°16' W 122°26'1 2.3
2017-Aug-15 09:01N 47°15' W 122°26'0 0.0
2017-Aug-15 08:30N 47°15' W 122°26'0 0.0
2017-Aug-15 08:00N 47°15' W 122°26'0 0.0
2017-Aug-15 07:30N 47°15' W 122°26'0 0.0
2017-Aug-15 07:00N 47°15' W 122°26'0 0.0
2017-Aug-15 06:30N 47°15' W 122°26'0 0.0
2017-Aug-15 05:37N 47°15' W 122°26'0 0.0
2017-Aug-15 05:22N 47°15' W 122°26'0 0.0
2017-Aug-15 04:10N 47°15' W 122°26'0 0.0
2017-Aug-15 03:10N 47°15' W 122°26'0 0.0
2017-Aug-15 02:57N 47°15' W 122°26'0 0.0
2017-Aug-15 02:30N 47°15' W 122°26'0 0.0
2017-Aug-15 02:00N 47°15' W 122°26'0 0.0
2017-Aug-15 01:30N 47°15' W 122°26'0 0.0
2017-Aug-15 01:01N 47°15' W 122°26'0 0.0
2017-Aug-15 00:30N 47°15' W 122°26'0 0.0
2017-Aug-14 23:41N 47°15' W 122°26'0 0.0
2017-Aug-14 23:11N 47°15' W 122°26'0 0.0
2017-Aug-14 22:59N 47°15' W 122°26'0 0.0
2017-Aug-14 22:30N 47°15' W 122°26'0 0.0
2017-Aug-14 21:59N 47°15' W 122°26'0 0.0
2017-Aug-14 21:30N 47°15' W 122°26'0 0.0
2017-Aug-14 21:00N 47°15' W 122°26'0 0.0
2017-Aug-14 20:29N 47°15' W 122°26'0 0.0
2017-Aug-14 20:00N 47°15' W 122°26'0 0.0
2017-Aug-14 19:30N 47°15' W 122°26'0 0.0
2017-Aug-14 19:00N 47°15' W 122°26'0 0.0
2017-Aug-14 18:30N 47°15' W 122°26'0 0.0
2017-Aug-14 18:00N 47°15' W 122°26'0 0.0
2017-Aug-14 17:30N 47°15' W 122°26'0 0.0
2017-Aug-14 17:01N 47°15' W 122°26'0 0.0
2017-Aug-14 16:30N 47°15' W 122°26'0 0.0
2017-Aug-14 15:42N 47°15' W 122°26'0 0.0
2017-Aug-14 15:30N 47°15' W 122°26'0 0.4
2017-Aug-14 15:00N 47°15' W 122°26'2 4.0
2017-Aug-14 14:29N 47°16' W 122°23'1 1.8
2017-Aug-14 13:40N 47°17' W 122°25'1 3.8
2017-Aug-14 13:29N 47°17' W 122°25'0 1.0
2017-Aug-14 13:00N 47°17' W 122°26'2 4.2
2017-Aug-14 12:30N 47°15' W 122°26'0 0.0
2017-Aug-14 12:01N 47°15' W 122°26'0 0.0
2017-Aug-14 11:30N 47°15' W 122°26'0 0.0
2017-Aug-14 11:00N 47°15' W 122°26'0 0.0
2017-Aug-14 09:49N 47°15' W 122°26'0 0.0
2017-Aug-14 09:30N 47°15' W 122°26'0 0.0
2017-Aug-14 09:00N 47°15' W 122°26'0 0.0
2017-Aug-14 08:30N 47°15' W 122°26'0 0.0
2017-Aug-14 08:00N 47°15' W 122°26'0 0.0
2017-Aug-14 07:31N 47°15' W 122°26'0 0.0
2017-Aug-14 07:00N 47°15' W 122°26'0 0.0
2017-Aug-14 06:31N 47°15' W 122°26'0 0.0
2017-Aug-14 06:01N 47°15' W 122°26'0 0.0
2017-Aug-14 05:31N 47°15' W 122°26'0 0.0
2017-Aug-14 05:01N 47°15' W 122°26'0 0.0
2017-Aug-14 04:31N 47°15' W 122°26'0 0.0
2017-Aug-14 04:01N 47°15' W 122°26'0 0.0
2017-Aug-14 03:31N 47°15' W 122°26'0 0.0
2017-Aug-14 03:00N 47°15' W 122°26'0 0.0
2017-Aug-14 02:30N 47°15' W 122°26'0 0.0
2017-Aug-14 02:01N 47°15' W 122°26'0 0.0
2017-Aug-14 01:31N 47°15' W 122°26'0 0.0
2017-Aug-14 01:00N 47°15' W 122°26'0 0.0
2017-Aug-13 23:57N 47°15' W 122°26'0 0.0
2017-Aug-13 23:25N 47°15' W 122°26'0 0.0
2017-Aug-13 23:00N 47°15' W 122°26'0 0.0
2017-Aug-13 22:30N 47°15' W 122°26'0 0.0
2017-Aug-13 21:07N 47°15' W 122°26'0 0.0
2017-Aug-13 20:56N 47°15' W 122°26'0 0.0
2017-Aug-13 20:28N 47°15' W 122°26'0 0.0
2017-Aug-13 19:51N 47°15' W 122°26'0 0.0
2017-Aug-13 19:29N 47°15' W 122°26'0 0.0
2017-Aug-13 19:01N 47°15' W 122°26'0 0.0
2017-Aug-13 18:30N 47°15' W 122°26'0 0.0
2017-Aug-13 18:01N 47°15' W 122°26'0 0.0
2017-Aug-13 17:31N 47°15' W 122°26'0 0.0
2017-Aug-13 17:01N 47°15' W 122°26'0 0.0
2017-Aug-13 16:31N 47°15' W 122°26'0 0.0
2017-Aug-13 16:00N 47°15' W 122°26'0 0.0
2017-Aug-13 15:31N 47°15' W 122°26'0 0.0
2017-Aug-13 15:00N 47°15' W 122°26'0 0.0
2017-Aug-13 14:30N 47°15' W 122°26'0 0.0
2017-Aug-13 14:01N 47°15' W 122°26'0 0.0
2017-Aug-13 13:30N 47°15' W 122°26'0 0.0
2017-Aug-13 13:00N 47°15' W 122°26'0 0.0
2017-Aug-13 12:23N 47°15' W 122°26'0 0.0
2017-Aug-13 08:22N 47°15' W 122°26'0 0.0
2017-Aug-13 07:55N 47°15' W 122°26'0 0.0
2017-Aug-13 07:30N 47°15' W 122°26'0 0.0
2017-Aug-13 06:55N 47°15' W 122°26'0 0.0
2017-Aug-13 06:31N 47°15' W 122°26'0 0.0
2017-Aug-13 06:01N 47°15' W 122°26'0 0.0
2017-Aug-13 05:31N 47°15' W 122°26'0 0.0
2017-Aug-13 05:00N 47°15' W 122°26'2 0.2
2017-Aug-12 20:11N 47°16' W 122°24'1 3.7
2017-Aug-12 20:00N 47°16' W 122°24'0 0.8
2017-Aug-12 19:29N 47°16' W 122°24'2 3.1
2017-Aug-12 18:57N 47°15' W 122°26'0 0.0
2017-Aug-12 18:30N 47°15' W 122°26'0 0.0
2017-Aug-12 15:43N 47°15' W 122°26'1 2.8
2017-Aug-12 15:30N 47°16' W 122°26'2 2.3
2017-Aug-12 14:26N 47°15' W 122°23'2 3.3
2017-Aug-12 13:51N 47°17' W 122°25'1 2.9
2017-Aug-12 13:24N 47°18' W 122°26'0 0.5
2017-Aug-12 12:47N 47°18' W 122°26'0 0.0
2017-Aug-12 12:08N 47°18' W 122°26'0 0.0
2017-Aug-12 11:49N 47°18' W 122°26'0 0.1
2017-Aug-12 11:28N 47°18' W 122°26'0 0.1
2017-Aug-12 10:47N 47°18' W 122°26'1 1.8
2017-Aug-12 10:30N 47°17' W 122°26'1 1.9
2017-Aug-12 10:00N 47°17' W 122°25'0 0.0
2017-Aug-12 09:30N 47°17' W 122°25'2 3.1
2017-Aug-12 09:00N 47°15' W 122°26'0 0.0
2017-Aug-12 08:30N 47°15' W 122°26'0 0.0
2017-Aug-12 08:00N 47°15' W 122°26'0 0.0
2017-Aug-12 07:31N 47°15' W 122°26'0 0.0
2017-Aug-12 07:01N 47°15' W 122°26'0 0.0
2017-Aug-12 06:30N 47°15' W 122°26'0 0.0
2017-Aug-12 05:59N 47°15' W 122°26'0 0.0
2017-Aug-12 05:31N 47°15' W 122°26'0 0.0
2017-Aug-12 05:00N 47°15' W 122°26'0 0.0
2017-Aug-12 04:31N 47°15' W 122°26'0 0.0
2017-Aug-12 04:01N 47°15' W 122°26'0 0.0
2017-Aug-12 03:31N 47°15' W 122°26'0 0.0
2017-Aug-12 03:00N 47°15' W 122°26'0 0.0
2017-Aug-12 02:30N 47°15' W 122°26'0 0.0
2017-Aug-12 02:00N 47°15' W 122°26'0 0.0
2017-Aug-12 01:31N 47°15' W 122°26'1 1.6
2017-Aug-12 01:00N 47°16' W 122°26'1 1.6
2017-Aug-12 00:29N 47°16' W 122°25'1 2.3
2017-Aug-12 00:00N 47°15' W 122°26'0 0.0
2017-Aug-11 23:30N 47°15' W 122°26'0 0.0
2017-Aug-11 22:24N 47°15' W 122°26'0 0.0
2017-Aug-11 22:00N 47°15' W 122°26'0 0.0
2017-Aug-11 21:30N 47°15' W 122°26'0 0.0
2017-Aug-11 20:59N 47°15' W 122°26'0 0.0
2017-Aug-11 20:28N 47°15' W 122°26'0 0.0
2017-Aug-11 19:57N 47°15' W 122°26'0 0.0
2017-Aug-11 18:14N 47°15' W 122°26'0 0.0
2017-Aug-11 18:00N 47°15' W 122°26'0 0.0
2017-Aug-11 17:28N 47°15' W 122°26'0 0.0
2017-Aug-11 17:00N 47°15' W 122°26'0 0.0
2017-Aug-11 16:30N 47°15' W 122°26'0 0.0
2017-Aug-11 16:00N 47°15' W 122°26'0 0.0
2017-Aug-11 15:30N 47°15' W 122°26'0 0.0
2017-Aug-11 15:00N 47°15' W 122°26'0 0.0
2017-Aug-11 14:00N 47°15' W 122°26'2 1.2
2017-Aug-11 12:40N 47°16' W 122°24'0 0.7
2017-Aug-11 12:18N 47°16' W 122°24'1 2.7
2017-Aug-11 11:59N 47°16' W 122°25'0 0.2
2017-Aug-11 11:30N 47°16' W 122°25'1 1.3
2017-Aug-11 11:00N 47°17' W 122°26'1 0.4
2017-Aug-11 08:58N 47°18' W 122°26'0 0.1
2017-Aug-11 08:28N 47°18' W 122°26'0 0.0
2017-Aug-11 08:00N 47°18' W 122°26'0 0.0
2017-Aug-11 07:25N 47°18' W 122°26'0 0.0
2017-Aug-11 06:59N 47°18' W 122°26'0 0.0
2017-Aug-11 06:03N 47°18' W 122°26'0 0.1
2017-Aug-11 05:59N 47°18' W 122°26'0 0.0
2017-Aug-11 05:24N 47°18' W 122°26'0 0.0
2017-Aug-11 05:00N 47°18' W 122°26'0 0.0
2017-Aug-11 04:05N 47°18' W 122°26'0 0.0
2017-Aug-11 03:59N 47°18' W 122°26'0 0.0
2017-Aug-11 03:28N 47°18' W 122°26'0 0.1
2017-Aug-11 03:00N 47°18' W 122°26'0 0.0
2017-Aug-11 02:30N 47°18' W 122°26'0 0.0
2017-Aug-11 02:00N 47°18' W 122°26'0 0.0
2017-Aug-11 01:09N 47°18' W 122°26'0 0.0
2017-Aug-11 00:56N 47°18' W 122°26'0 0.1
2017-Aug-11 00:22N 47°18' W 122°26'0 0.0
2017-Aug-10 23:56N 47°18' W 122°26'0 0.0
2017-Aug-10 23:20N 47°18' W 122°26'0 0.0
2017-Aug-10 22:47N 47°18' W 122°26'0 0.2
2017-Aug-10 22:30N 47°18' W 122°26'1 2.8
2017-Aug-10 21:59N 47°16' W 122°25'0 0.7
2017-Aug-10 21:31N 47°16' W 122°25'1 1.9
2017-Aug-10 20:51N 47°15' W 122°26'0 0.0
2017-Aug-10 20:29N 47°15' W 122°26'0 0.0
2017-Aug-10 19:50N 47°15' W 122°26'0 0.0
2017-Aug-10 19:30N 47°15' W 122°26'0 0.0
2017-Aug-10 18:59N 47°15' W 122°26'0 0.0
2017-Aug-10 18:27N 47°15' W 122°26'0 0.0
2017-Aug-10 17:59N 47°15' W 122°26'0 0.0
2017-Aug-10 17:30N 47°15' W 122°26'0 0.0
2017-Aug-10 17:00N 47°15' W 122°26'0 0.0
2017-Aug-10 16:30N 47°15' W 122°26'0 0.0
2017-Aug-10 16:00N 47°15' W 122°26'0 0.0
2017-Aug-10 15:30N 47°15' W 122°26'0 0.0
2017-Aug-10 15:00N 47°15' W 122°26'0 0.0
2017-Aug-10 14:29N 47°15' W 122°26'0 0.0
2017-Aug-10 13:58N 47°15' W 122°26'0 0.0
2017-Aug-10 13:30N 47°15' W 122°26'0 0.0
2017-Aug-10 13:00N 47°15' W 122°26'0 0.0
2017-Aug-10 12:30N 47°15' W 122°26'0 0.0
2017-Aug-10 12:00N 47°15' W 122°26'0 0.0
2017-Aug-10 11:30N 47°15' W 122°26'0 0.0
2017-Aug-10 11:00N 47°15' W 122°26'0 0.0
2017-Aug-10 10:29N 47°15' W 122°26'0 0.0
2017-Aug-10 10:00N 47°15' W 122°26'0 0.0
2017-Aug-10 09:30N 47°15' W 122°26'0 0.0
2017-Aug-10 09:00N 47°15' W 122°26'0 0.0
2017-Aug-10 08:30N 47°15' W 122°26'0 0.0
2017-Aug-10 08:00N 47°15' W 122°26'0 0.0
2017-Aug-10 07:30N 47°15' W 122°26'0 0.0
2017-Aug-10 07:00N 47°15' W 122°26'0 0.0
2017-Aug-10 06:29N 47°15' W 122°26'0 0.0
2017-Aug-10 06:00N 47°15' W 122°26'0 0.0
2017-Aug-10 05:30N 47°15' W 122°26'0 0.0
2017-Aug-10 05:00N 47°15' W 122°26'0 0.0
2017-Aug-10 04:30N 47°15' W 122°26'0 0.0
2017-Aug-10 04:00N 47°15' W 122°26'0 0.0
2017-Aug-10 03:30N 47°15' W 122°26'0 0.0
2017-Aug-10 03:00N 47°15' W 122°26'0 0.0
2017-Aug-10 02:30N 47°15' W 122°26'0 0.4
2017-Aug-10 02:01N 47°15' W 122°26'2 3.1
2017-Aug-10 01:27N 47°16' W 122°24'1 1.2
2017-Aug-10 00:51N 47°16' W 122°23'0 1.2
2017-Aug-10 00:30N 47°16' W 122°23'2 3.8
2017-Aug-10 00:00N 47°16' W 122°26'0 0.6
2017-Aug-09 23:28N 47°15' W 122°26'0 0.0
2017-Aug-09 22:57N 47°15' W 122°26'0 0.0
2017-Aug-09 22:28N 47°15' W 122°26'0 0.0
2017-Aug-09 21:59N 47°15' W 122°26'0 0.0
2017-Aug-09 21:29N 47°15' W 122°26'0 0.0
2017-Aug-09 20:50N 47°15' W 122°26'0 0.0
2017-Aug-09 17:17N 47°15' W 122°26'0 0.0
2017-Aug-09 17:00N 47°15' W 122°26'0 0.0
2017-Aug-09 16:30N 47°15' W 122°26'0 0.0
2017-Aug-09 16:00N 47°15' W 122°26'0 0.0
2017-Aug-09 15:30N 47°15' W 122°26'0 0.0
2017-Aug-09 15:00N 47°15' W 122°26'0 0.0
2017-Aug-09 14:25N 47°15' W 122°26'0 0.0
2017-Aug-09 14:00N 47°15' W 122°26'0 0.0
2017-Aug-09 13:30N 47°15' W 122°26'0 0.0
2017-Aug-09 13:00N 47°15' W 122°26'0 0.0
2017-Aug-09 12:30N 47°15' W 122°26'1 2.1
2017-Aug-09 12:00N 47°16' W 122°25'0 0.3
2017-Aug-09 11:31N 47°16' W 122°25'1 2.6
2017-Aug-09 11:00N 47°17' W 122°26'1 1.2
2017-Aug-09 10:30N 47°18' W 122°26'0 0.1
2017-Aug-09 09:54N 47°18' W 122°26'0 0.0
2017-Aug-09 09:30N 47°18' W 122°26'0 0.0
2017-Aug-09 09:00N 47°18' W 122°26'2 4.3
2017-Aug-09 08:30N 47°16' W 122°24'1 1.3
2017-Aug-09 08:01N 47°16' W 122°23'0 0.0
2017-Aug-09 07:30N 47°16' W 122°23'2 3.1
2017-Aug-09 07:00N 47°17' W 122°25'1 1.1
2017-Aug-09 06:31N 47°17' W 122°25'1 1.7
2017-Aug-09 05:58N 47°18' W 122°26'0 0.3
2017-Aug-09 05:30N 47°18' W 122°26'0 0.0
2017-Aug-09 05:01N 47°18' W 122°26'0 0.0
2017-Aug-09 04:30N 47°18' W 122°26'0 0.1
2017-Aug-09 04:00N 47°18' W 122°26'0 0.1
2017-Aug-09 03:31N 47°18' W 122°26'0 0.1
2017-Aug-09 03:00N 47°18' W 122°26'1 2.0
2017-Aug-09 02:21N 47°17' W 122°25'2 2.5
2017-Aug-09 01:43N 47°16' W 122°23'0 1.4
2017-Aug-09 01:30N 47°16' W 122°23'2 3.2
2017-Aug-09 01:01N 47°17' W 122°25'1 1.7
2017-Aug-09 00:31N 47°17' W 122°26'2 3.2
2017-Aug-08 23:56N 47°15' W 122°26'0 0.0
2017-Aug-08 23:30N 47°15' W 122°26'0 0.0
2017-Aug-08 23:01N 47°15' W 122°26'0 0.0
2017-Aug-08 22:29N 47°15' W 122°26'0 0.0
2017-Aug-08 22:01N 47°15' W 122°26'0 0.0
2017-Aug-08 21:29N 47°15' W 122°26'0 0.0
2017-Aug-08 20:59N 47°15' W 122°26'0 0.0
2017-Aug-08 19:49N 47°15' W 122°26'0 0.0
2017-Aug-08 19:30N 47°15' W 122°26'0 0.0
2017-Aug-08 19:00N 47°15' W 122°26'0 0.0
2017-Aug-08 18:30N 47°15' W 122°26'0 0.0
2017-Aug-08 17:58N 47°15' W 122°26'0 0.0
2017-Aug-08 17:21N 47°15' W 122°26'0 0.0
2017-Aug-08 17:00N 47°15' W 122°26'0 0.0
2017-Aug-08 16:31N 47°15' W 122°26'0 0.0
2017-Aug-08 16:01N 47°15' W 122°26'0 0.0
2017-Aug-08 15:30N 47°15' W 122°26'0 0.0
2017-Aug-08 14:58N 47°15' W 122°26'0 0.0
2017-Aug-08 14:30N 47°15' W 122°26'0 0.0
2017-Aug-08 14:01N 47°15' W 122°26'0 0.0
2017-Aug-08 13:29N 47°15' W 122°26'0 0.0
2017-Aug-08 12:59N 47°15' W 122°26'1 1.5
2017-Aug-08 12:30N 47°16' W 122°26'1 1.9
2017-Aug-08 11:59N 47°16' W 122°25'1 2.4
2017-Aug-08 11:31N 47°17' W 122°26'0 0.2
2017-Aug-08 11:00N 47°17' W 122°26'1 2.0
2017-Aug-08 10:26N 47°16' W 122°25'1 1.8
2017-Aug-08 09:56N 47°16' W 122°24'1 1.4
2017-Aug-08 09:30N 47°16' W 122°23'0 0.1
2017-Aug-08 08:43N 47°16' W 122°23'1 2.6
2017-Aug-08 08:29N 47°16' W 122°24'2 3.4
2017-Aug-08 07:49N 47°18' W 122°26'0 0.0
2017-Aug-08 06:55N 47°18' W 122°26'0 0.0
2017-Aug-08 06:27N 47°18' W 122°26'0 0.0
2017-Aug-08 05:39N 47°18' W 122°26'0 0.0
2017-Aug-08 05:30N 47°18' W 122°26'0 0.0
2017-Aug-08 04:54N 47°18' W 122°26'0 0.0
2017-Aug-08 04:25N 47°18' W 122°26'0 0.0
2017-Aug-08 03:54N 47°18' W 122°26'0 0.1
2017-Aug-08 03:29N 47°18' W 122°26'  
Track history (hours):
 
Tides and Currents Weather Stations Pressure Air Temp Water Temp Dewpoint Dewpoint Depression Visibility Wind Speed Wind Dir Waves Ship Positions

Guide

Owner: Crowley Marine Services, SEATTLE, WA. More information available from US FCC via Universal Licensing System and Coast Guard Vessel Documentation Center.

Last reported at 2017-Aug-18 03:00 UTC. Time now 2017-Aug-18 03:05 UTC.
Position N 47°15' W 122°26'.

Length 34 m; draft 5.1 m.

Type: Tug. MMSI: 366759530.

Date/timePositionNaut miles runAvg speedWind from/ knotsBaromVisibWave heightAir tempDewpointWater temp
2017-Aug-18 03:00N 47°15' W 122°26'0 0.0
2017-Aug-18 02:30N 47°15' W 122°26'0 0.0
2017-Aug-18 02:00N 47°15' W 122°26'0 0.0
2017-Aug-18 01:30N 47°15' W 122°26'0 0.0
2017-Aug-18 01:00N 47°15' W 122°26'0 0.0
2017-Aug-18 00:30N 47°15' W 122°26'0 0.0
2017-Aug-18 00:00N 47°15' W 122°26'1 2.4
2017-Aug-17 23:31N 47°16' W 122°26'0 0.6
2017-Aug-17 23:00N 47°17' W 122°25'1 0.3
2017-Aug-17 20:52N 47°16' W 122°24'1 2.3
2017-Aug-17 20:30N 47°16' W 122°24'1 0.9
2017-Aug-17 19:51N 47°16' W 122°23'0 1.4
2017-Aug-17 19:30N 47°16' W 122°23'2 3.7
2017-Aug-17 19:00N 47°15' W 122°26'0 0.0
2017-Aug-17 18:30N 47°15' W 122°26'0 0.0
2017-Aug-17 18:00N 47°15' W 122°26'0 0.0
2017-Aug-17 15:47N 47°15' W 122°26'0 0.0
2017-Aug-17 15:30N 47°15' W 122°26'0 0.0
2017-Aug-17 15:00N 47°15' W 122°26'0 0.0
2017-Aug-17 14:30N 47°15' W 122°26'0 0.0
2017-Aug-17 13:56N 47°15' W 122°26'0 0.0
2017-Aug-17 13:30N 47°15' W 122°26'0 0.0
2017-Aug-17 13:00N 47°15' W 122°26'0 0.0
2017-Aug-17 12:30N 47°15' W 122°26'0 0.0
2017-Aug-17 11:52N 47°15' W 122°26'0 0.0
2017-Aug-17 11:29N 47°15' W 122°26'0 0.0
2017-Aug-17 11:00N 47°15' W 122°26'0 0.0
2017-Aug-17 10:30N 47°15' W 122°26'0 0.0
2017-Aug-17 10:00N 47°15' W 122°26'0 0.0
2017-Aug-17 09:30N 47°15' W 122°26'0 0.0
2017-Aug-17 09:00N 47°15' W 122°26'0 0.0
2017-Aug-17 08:30N 47°15' W 122°26'0 0.0
2017-Aug-17 08:00N 47°15' W 122°26'0 0.0
2017-Aug-17 07:30N 47°15' W 122°26'0 0.0
2017-Aug-17 07:00N 47°15' W 122°26'0 0.0
2017-Aug-17 06:30N 47°15' W 122°26'0 0.0
2017-Aug-17 06:00N 47°15' W 122°26'0 0.0
2017-Aug-17 05:30N 47°15' W 122°26'0 0.0
2017-Aug-17 05:00N 47°15' W 122°26'0 0.0
2017-Aug-17 04:30N 47°15' W 122°26'0 0.0
2017-Aug-17 04:00N 47°15' W 122°26'2 3.9
2017-Aug-17 03:30N 47°16' W 122°23'0 0.4
2017-Aug-17 02:58N 47°16' W 122°23'1 2.0
2017-Aug-17 02:29N 47°16' W 122°24'2 3.8
2017-Aug-17 02:00N 47°17' W 122°26'1 2.5
2017-Aug-17 01:30N 47°16' W 122°25'1 1.0
2017-Aug-17 01:00N 47°17' W 122°25'1 1.2
2017-Aug-17 00:30N 47°16' W 122°25'0 1.0
2017-Aug-17 00:00N 47°17' W 122°25'2 3.5
2017-Aug-16 23:30N 47°15' W 122°23'0 0.2
2017-Aug-16 22:59N 47°15' W 122°23'0 0.0
2017-Aug-16 22:30N 47°16' W 122°23'3 5.7
2017-Aug-16 22:00N 47°18' W 122°26'0 0.0
2017-Aug-16 21:29N 47°18' W 122°26'0 0.0
2017-Aug-16 21:00N 47°18' W 122°26'0 0.0
2017-Aug-16 20:30N 47°18' W 122°26'0 0.0
2017-Aug-16 20:00N 47°18' W 122°26'0 0.0
2017-Aug-16 19:28N 47°18' W 122°26'0 0.0
2017-Aug-16 18:57N 47°18' W 122°26'0 0.1
2017-Aug-16 18:28N 47°18' W 122°26'0 0.0
2017-Aug-16 18:00N 47°18' W 122°26'0 0.0
2017-Aug-16 17:30N 47°18' W 122°26'0 0.1
2017-Aug-16 17:00N 47°18' W 122°26'0 0.1
2017-Aug-16 16:30N 47°18' W 122°26'0 0.0
2017-Aug-16 16:00N 47°18' W 122°26'0 0.3
2017-Aug-16 15:31N 47°18' W 122°26'3 5.8
2017-Aug-16 15:00N 47°16' W 122°23'0 0.5
2017-Aug-16 14:30N 47°15' W 122°23'2 3.6
2017-Aug-16 14:00N 47°17' W 122°25'1 2.3
2017-Aug-16 13:30N 47°18' W 122°26'0 0.3
2017-Aug-16 13:00N 47°17' W 122°26'1 2.6
2017-Aug-16 12:30N 47°16' W 122°25'0 0.2
2017-Aug-16 12:00N 47°16' W 122°25'1 2.1
2017-Aug-16 11:30N 47°17' W 122°26'0 0.7
2017-Aug-16 11:00N 47°17' W 122°26'2 3.5
2017-Aug-16 10:30N 47°16' W 122°24'1 1.5
2017-Aug-16 10:00N 47°16' W 122°23'1 1.1
2017-Aug-16 09:30N 47°16' W 122°23'2 4.6
2017-Aug-16 09:00N 47°17' W 122°26'1 2.5
2017-Aug-16 08:30N 47°17' W 122°25'0 0.3
2017-Aug-16 08:00N 47°17' W 122°25'1 2.4
2017-Aug-16 07:30N 47°17' W 122°26'1 3.0
2017-Aug-16 07:00N 47°16' W 122°25'0 0.8
2017-Aug-16 06:30N 47°16' W 122°25'1 2.1
2017-Aug-16 06:00N 47°17' W 122°26'1 1.3
2017-Aug-16 05:30N 47°17' W 122°26'1 2.7
2017-Aug-16 05:00N 47°15' W 122°26'0 0.0
2017-Aug-16 04:30N 47°15' W 122°26'0 0.0
2017-Aug-16 04:00N 47°15' W 122°26'0 0.0
2017-Aug-16 03:30N 47°15' W 122°26'0 0.0
2017-Aug-16 03:00N 47°15' W 122°26'0 0.0
2017-Aug-16 02:29N 47°15' W 122°26'0 0.0
2017-Aug-16 02:00N 47°15' W 122°26'0 0.0
2017-Aug-16 01:30N 47°15' W 122°26'1 2.3
2017-Aug-16 01:00N 47°16' W 122°25'0 0.6
2017-Aug-16 00:30N 47°16' W 122°25'2 3.2
2017-Aug-16 00:00N 47°18' W 122°26'0 0.0
2017-Aug-15 23:30N 47°18' W 122°26'0 0.0
2017-Aug-15 22:56N 47°18' W 122°26'0 0.0
2017-Aug-15 22:30N 47°18' W 122°26'0 0.0
2017-Aug-15 21:59N 47°18' W 122°26'0 0.0
2017-Aug-15 21:29N 47°18' W 122°26'0 0.0
2017-Aug-15 20:58N 47°18' W 122°26'0 0.1
2017-Aug-15 20:29N 47°18' W 122°26'0 0.1
2017-Aug-15 20:00N 47°18' W 122°26'0 0.0
2017-Aug-15 19:29N 47°18' W 122°26'0 0.0
2017-Aug-15 19:00N 47°18' W 122°26'0 0.0
2017-Aug-15 18:30N 47°18' W 122°26'0 0.0
2017-Aug-15 18:00N 47°18' W 122°26'0 0.0
2017-Aug-15 17:30N 47°18' W 122°26'0 0.0
2017-Aug-15 16:47N 47°18' W 122°26'0 0.0
2017-Aug-15 16:30N 47°18' W 122°26'0 0.0
2017-Aug-15 16:01N 47°18' W 122°26'0 0.0
2017-Aug-15 15:28N 47°18' W 122°26'0 0.0
2017-Aug-15 15:00N 47°18' W 122°26'0 0.0
2017-Aug-15 14:30N 47°18' W 122°26'0 0.0
2017-Aug-15 13:58N 47°18' W 122°26'0 0.1
2017-Aug-15 13:31N 47°18' W 122°26'0 0.0
2017-Aug-15 13:00N 47°18' W 122°26'1 1.4
2017-Aug-15 12:30N 47°17' W 122°26'1 2.1
2017-Aug-15 12:00N 47°16' W 122°25'1 1.6
2017-Aug-15 11:30N 47°17' W 122°26'1 1.6
2017-Aug-15 11:00N 47°16' W 122°25'0 0.0
2017-Aug-15 10:30N 47°16' W 122°25'0 0.0
2017-Aug-15 10:01N 47°16' W 122°25'1 1.5
2017-Aug-15 09:31N 47°16' W 122°26'1 2.3
2017-Aug-15 09:01N 47°15' W 122°26'0 0.0
2017-Aug-15 08:30N 47°15' W 122°26'0 0.0
2017-Aug-15 08:00N 47°15' W 122°26'0 0.0
2017-Aug-15 07:30N 47°15' W 122°26'0 0.0
2017-Aug-15 07:00N 47°15' W 122°26'0 0.0
2017-Aug-15 06:30N 47°15' W 122°26'0 0.0
2017-Aug-15 05:37N 47°15' W 122°26'0 0.0
2017-Aug-15 05:22N 47°15' W 122°26'0 0.0
2017-Aug-15 04:10N 47°15' W 122°26'0 0.0
2017-Aug-15 03:10N 47°15' W 122°26'0 0.0
2017-Aug-15 02:57N 47°15' W 122°26'0 0.0
2017-Aug-15 02:30N 47°15' W 122°26'0 0.0
2017-Aug-15 02:00N 47°15' W 122°26'0 0.0
2017-Aug-15 01:30N 47°15' W 122°26'0 0.0
2017-Aug-15 01:01N 47°15' W 122°26'0 0.0
2017-Aug-15 00:30N 47°15' W 122°26'0 0.0
2017-Aug-14 23:41N 47°15' W 122°26'0 0.0
2017-Aug-14 23:11N 47°15' W 122°26'0 0.0
2017-Aug-14 22:59N 47°15' W 122°26'0 0.0
2017-Aug-14 22:30N 47°15' W 122°26'0 0.0
2017-Aug-14 21:59N 47°15' W 122°26'0 0.0
2017-Aug-14 21:30N 47°15' W 122°26'0 0.0
2017-Aug-14 21:00N 47°15' W 122°26'0 0.0
2017-Aug-14 20:29N 47°15' W 122°26'0 0.0
2017-Aug-14 20:00N 47°15' W 122°26'0 0.0
2017-Aug-14 19:30N 47°15' W 122°26'0 0.0
2017-Aug-14 19:00N 47°15' W 122°26'0 0.0
2017-Aug-14 18:30N 47°15' W 122°26'0 0.0
2017-Aug-14 18:00N 47°15' W 122°26'0 0.0
2017-Aug-14 17:30N 47°15' W 122°26'0 0.0
2017-Aug-14 17:01N 47°15' W 122°26'0 0.0
2017-Aug-14 16:30N 47°15' W 122°26'0 0.0
2017-Aug-14 15:42N 47°15' W 122°26'0 0.0
2017-Aug-14 15:30N 47°15' W 122°26'0 0.4
2017-Aug-14 15:00N 47°15' W 122°26'2 4.0
2017-Aug-14 14:29N 47°16' W 122°23'1 1.8
2017-Aug-14 13:40N 47°17' W 122°25'1 3.8
2017-Aug-14 13:29N 47°17' W 122°25'0 1.0
2017-Aug-14 13:00N 47°17' W 122°26'2 4.2
2017-Aug-14 12:30N 47°15' W 122°26'0 0.0
2017-Aug-14 12:01N 47°15' W 122°26'0 0.0
2017-Aug-14 11:30N 47°15' W 122°26'0 0.0
2017-Aug-14 11:00N 47°15' W 122°26'0 0.0
2017-Aug-14 09:49N 47°15' W 122°26'0 0.0
2017-Aug-14 09:30N 47°15' W 122°26'0 0.0
2017-Aug-14 09:00N 47°15' W 122°26'0 0.0
2017-Aug-14 08:30N 47°15' W 122°26'0 0.0
2017-Aug-14 08:00N 47°15' W 122°26'0 0.0
2017-Aug-14 07:31N 47°15' W 122°26'0 0.0
2017-Aug-14 07:00N 47°15' W 122°26'0 0.0
2017-Aug-14 06:31N 47°15' W 122°26'0 0.0
2017-Aug-14 06:01N 47°15' W 122°26'0 0.0
2017-Aug-14 05:31N 47°15' W 122°26'0 0.0
2017-Aug-14 05:01N 47°15' W 122°26'0 0.0
2017-Aug-14 04:31N 47°15' W 122°26'0 0.0
2017-Aug-14 04:01N 47°15' W 122°26'0 0.0
2017-Aug-14 03:31N 47°15' W 122°26'0 0.0
2017-Aug-14 03:00N 47°15' W 122°26'0 0.0
2017-Aug-14 02:30N 47°15' W 122°26'0 0.0
2017-Aug-14 02:01N 47°15' W 122°26'0 0.0
2017-Aug-14 01:31N 47°15' W 122°26'0 0.0
2017-Aug-14 01:00N 47°15' W 122°26'0 0.0
2017-Aug-13 23:57N 47°15' W 122°26'0 0.0
2017-Aug-13 23:25N 47°15' W 122°26'0 0.0
2017-Aug-13 23:00N 47°15' W 122°26'0 0.0
2017-Aug-13 22:30N 47°15' W 122°26'0 0.0
2017-Aug-13 21:07N 47°15' W 122°26'0 0.0
2017-Aug-13 20:56N 47°15' W 122°26'0 0.0
2017-Aug-13 20:28N 47°15' W 122°26'0 0.0
2017-Aug-13 19:51N 47°15' W 122°26'0 0.0
2017-Aug-13 19:29N 47°15' W 122°26'0 0.0
2017-Aug-13 19:01N 47°15' W 122°26'0 0.0
2017-Aug-13 18:30N 47°15' W 122°26'0 0.0
2017-Aug-13 18:01N 47°15' W 122°26'0 0.0
2017-Aug-13 17:31N 47°15' W 122°26'0 0.0
2017-Aug-13 17:01N 47°15' W 122°26'0 0.0
2017-Aug-13 16:31N 47°15' W 122°26'0 0.0
2017-Aug-13 16:00N 47°15' W 122°26'0 0.0
2017-Aug-13 15:31N 47°15' W 122°26'0 0.0
2017-Aug-13 15:00N 47°15' W 122°26'0 0.0
2017-Aug-13 14:30N 47°15' W 122°26'0 0.0
2017-Aug-13 14:01N 47°15' W 122°26'0 0.0
2017-Aug-13 13:30N 47°15' W 122°26'0 0.0
2017-Aug-13 13:00N 47°15' W 122°26'0 0.0
2017-Aug-13 12:23N 47°15' W 122°26'0 0.0
2017-Aug-13 08:22N 47°15' W 122°26'0 0.0
2017-Aug-13 07:55N 47°15' W 122°26'0 0.0
2017-Aug-13 07:30N 47°15' W 122°26'0 0.0
2017-Aug-13 06:55N 47°15' W 122°26'0 0.0
2017-Aug-13 06:31N 47°15' W 122°26'0 0.0
2017-Aug-13 06:01N 47°15' W 122°26'0 0.0
2017-Aug-13 05:31N 47°15' W 122°26'0 0.0
2017-Aug-13 05:00N 47°15' W 122°26'2 0.2
2017-Aug-12 20:11N 47°16' W 122°24'1 3.7
2017-Aug-12 20:00N 47°16' W 122°24'0 0.8
2017-Aug-12 19:29N 47°16' W 122°24'2 3.1
2017-Aug-12 18:57N 47°15' W 122°26'0 0.0
2017-Aug-12 18:30N 47°15' W 122°26'0 0.0
2017-Aug-12 15:43N 47°15' W 122°26'1 2.8
2017-Aug-12 15:30N 47°16' W 122°26'2 2.3
2017-Aug-12 14:26N 47°15' W 122°23'2 3.3
2017-Aug-12 13:51N 47°17' W 122°25'1 2.9
2017-Aug-12 13:24N 47°18' W 122°26'0 0.5
2017-Aug-12 12:47N 47°18' W 122°26'0 0.0
2017-Aug-12 12:08N 47°18' W 122°26'0 0.0
2017-Aug-12 11:49N 47°18' W 122°26'0 0.1
2017-Aug-12 11:28N 47°18' W 122°26'0 0.1
2017-Aug-12 10:47N 47°18' W 122°26'1 1.8
2017-Aug-12 10:30N 47°17' W 122°26'1 1.9
2017-Aug-12 10:00N 47°17' W 122°25'0 0.0
2017-Aug-12 09:30N 47°17' W 122°25'2 3.1
2017-Aug-12 09:00N 47°15' W 122°26'0 0.0
2017-Aug-12 08:30N 47°15' W 122°26'0 0.0
2017-Aug-12 08:00N 47°15' W 122°26'0 0.0
2017-Aug-12 07:31N 47°15' W 122°26'0 0.0
2017-Aug-12 07:01N 47°15' W 122°26'0 0.0
2017-Aug-12 06:30N 47°15' W 122°26'0 0.0
2017-Aug-12 05:59N 47°15' W 122°26'0 0.0
2017-Aug-12 05:31N 47°15' W 122°26'0 0.0
2017-Aug-12 05:00N 47°15' W 122°26'0 0.0
2017-Aug-12 04:31N 47°15' W 122°26'0 0.0
2017-Aug-12 04:01N 47°15' W 122°26'0 0.0
2017-Aug-12 03:31N 47°15' W 122°26'0 0.0
2017-Aug-12 03:00N 47°15' W 122°26'0 0.0
2017-Aug-12 02:30N 47°15' W 122°26'0 0.0
2017-Aug-12 02:00N 47°15' W 122°26'0 0.0
2017-Aug-12 01:31N 47°15' W 122°26'1 1.6
2017-Aug-12 01:00N 47°16' W 122°26'1 1.6
2017-Aug-12 00:29N 47°16' W 122°25'1 2.3
2017-Aug-12 00:00N 47°15' W 122°26'0 0.0
2017-Aug-11 23:30N 47°15' W 122°26'0 0.0
2017-Aug-11 22:24N 47°15' W 122°26'0 0.0
2017-Aug-11 22:00N 47°15' W 122°26'0 0.0
2017-Aug-11 21:30N 47°15' W 122°26'0 0.0
2017-Aug-11 20:59N 47°15' W 122°26'0 0.0
2017-Aug-11 20:28N 47°15' W 122°26'0 0.0
2017-Aug-11 19:57N 47°15' W 122°26'0 0.0
2017-Aug-11 18:14N 47°15' W 122°26'0 0.0
2017-Aug-11 18:00N 47°15' W 122°26'0 0.0
2017-Aug-11 17:28N 47°15' W 122°26'0 0.0
2017-Aug-11 17:00N 47°15' W 122°26'0 0.0
2017-Aug-11 16:30N 47°15' W 122°26'0 0.0
2017-Aug-11 16:00N 47°15' W 122°26'0 0.0
2017-Aug-11 15:30N 47°15' W 122°26'0 0.0
2017-Aug-11 15:00N 47°15' W 122°26'0 0.0
2017-Aug-11 14:00N 47°15' W 122°26'2 1.2
2017-Aug-11 12:40N 47°16' W 122°24'0 0.7
2017-Aug-11 12:18N 47°16' W 122°24'1 2.7
2017-Aug-11 11:59N 47°16' W 122°25'0 0.2
2017-Aug-11 11:30N 47°16' W 122°25'1 1.3
2017-Aug-11 11:00N 47°17' W 122°26'1 0.4
2017-Aug-11 08:58N 47°18' W 122°26'0 0.1
2017-Aug-11 08:28N 47°18' W 122°26'0 0.0
2017-Aug-11 08:00N 47°18' W 122°26'0 0.0
2017-Aug-11 07:25N 47°18' W 122°26'0 0.0
2017-Aug-11 06:59N 47°18' W 122°26'0 0.0
2017-Aug-11 06:03N 47°18' W 122°26'0 0.1
2017-Aug-11 05:59N 47°18' W 122°26'0 0.0
2017-Aug-11 05:24N 47°18' W 122°26'0 0.0
2017-Aug-11 05:00N 47°18' W 122°26'0 0.0
2017-Aug-11 04:05N 47°18' W 122°26'0 0.0
2017-Aug-11 03:59N 47°18' W 122°26'0 0.0
2017-Aug-11 03:28N 47°18' W 122°26'0 0.1
2017-Aug-11 03:00N 47°18' W 122°26'0 0.0
2017-Aug-11 02:30N 47°18' W 122°26'0 0.0
2017-Aug-11 02:00N 47°18' W 122°26'0 0.0
2017-Aug-11 01:09N 47°18' W 122°26'0 0.0
2017-Aug-11 00:56N 47°18' W 122°26'0 0.1
2017-Aug-11 00:22N 47°18' W 122°26'0 0.0
2017-Aug-10 23:56N 47°18' W 122°26'0 0.0
2017-Aug-10 23:20N 47°18' W 122°26'0 0.0
2017-Aug-10 22:47N 47°18' W 122°26'0 0.2
2017-Aug-10 22:30N 47°18' W 122°26'1 2.8
2017-Aug-10 21:59N 47°16' W 122°25'0 0.7
2017-Aug-10 21:31N 47°16' W 122°25'1 1.9
2017-Aug-10 20:51N 47°15' W 122°26'0 0.0
2017-Aug-10 20:29N 47°15' W 122°26'0 0.0
2017-Aug-10 19:50N 47°15' W 122°26'0 0.0
2017-Aug-10 19:30N 47°15' W 122°26'0 0.0
2017-Aug-10 18:59N 47°15' W 122°26'0 0.0
2017-Aug-10 18:27N 47°15' W 122°26'0 0.0
2017-Aug-10 17:59N 47°15' W 122°26'0 0.0
2017-Aug-10 17:30N 47°15' W 122°26'0 0.0
2017-Aug-10 17:00N 47°15' W 122°26'0 0.0
2017-Aug-10 16:30N 47°15' W 122°26'0 0.0
2017-Aug-10 16:00N 47°15' W 122°26'0 0.0
2017-Aug-10 15:30N 47°15' W 122°26'0 0.0
2017-Aug-10 15:00N 47°15' W 122°26'0 0.0
2017-Aug-10 14:29N 47°15' W 122°26'0 0.0
2017-Aug-10 13:58N 47°15' W 122°26'0 0.0
2017-Aug-10 13:30N 47°15' W 122°26'0 0.0
2017-Aug-10 13:00N 47°15' W 122°26'0 0.0
2017-Aug-10 12:30N 47°15' W 122°26'0 0.0
2017-Aug-10 12:00N 47°15' W 122°26'0 0.0
2017-Aug-10 11:30N 47°15' W 122°26'0 0.0
2017-Aug-10 11:00N 47°15' W 122°26'0 0.0
2017-Aug-10 10:29N 47°15' W 122°26'0 0.0
2017-Aug-10 10:00N 47°15' W 122°26'0 0.0
2017-Aug-10 09:30N 47°15' W 122°26'0 0.0
2017-Aug-10 09:00N 47°15' W 122°26'0 0.0
2017-Aug-10 08:30N 47°15' W 122°26'0 0.0
2017-Aug-10 08:00N 47°15' W 122°26'0 0.0
2017-Aug-10 07:30N 47°15' W 122°26'0 0.0
2017-Aug-10 07:00N 47°15' W 122°26'0 0.0
2017-Aug-10 06:29N 47°15' W 122°26'0 0.0
2017-Aug-10 06:00N 47°15' W 122°26'0 0.0
2017-Aug-10 05:30N 47°15' W 122°26'0 0.0
2017-Aug-10 05:00N 47°15' W 122°26'0 0.0
2017-Aug-10 04:30N 47°15' W 122°26'0 0.0
2017-Aug-10 04:00N 47°15' W 122°26'0 0.0
2017-Aug-10 03:30N 47°15' W 122°26'0 0.0
2017-Aug-10 03:00N 47°15' W 122°26'0 0.0
2017-Aug-10 02:30N 47°15' W 122°26'0 0.4
2017-Aug-10 02:01N 47°15' W 122°26'2 3.1
2017-Aug-10 01:27N 47°16' W 122°24'1 1.2
2017-Aug-10 00:51N 47°16' W 122°23'0 1.2
2017-Aug-10 00:30N 47°16' W 122°23'2 3.8
2017-Aug-10 00:00N 47°16' W 122°26'0 0.6
2017-Aug-09 23:28N 47°15' W 122°26'0 0.0
2017-Aug-09 22:57N 47°15' W 122°26'0 0.0
2017-Aug-09 22:28N 47°15' W 122°26'0 0.0
2017-Aug-09 21:59N 47°15' W 122°26'0 0.0
2017-Aug-09 21:29N 47°15' W 122°26'0 0.0
2017-Aug-09 20:50N 47°15' W 122°26'0 0.0
2017-Aug-09 17:17N 47°15' W 122°26'0 0.0
2017-Aug-09 17:00N 47°15' W 122°26'0 0.0
2017-Aug-09 16:30N 47°15' W 122°26'0 0.0
2017-Aug-09 16:00N 47°15' W 122°26'0 0.0
2017-Aug-09 15:30N 47°15' W 122°26'0 0.0
2017-Aug-09 15:00N 47°15' W 122°26'0 0.0
2017-Aug-09 14:25N 47°15' W 122°26'0 0.0
2017-Aug-09 14:00N 47°15' W 122°26'0 0.0
2017-Aug-09 13:30N 47°15' W 122°26'0 0.0
2017-Aug-09 13:00N 47°15' W 122°26'0 0.0
2017-Aug-09 12:30N 47°15' W 122°26'1 2.1
2017-Aug-09 12:00N 47°16' W 122°25'0 0.3
2017-Aug-09 11:31N 47°16' W 122°25'1 2.6
2017-Aug-09 11:00N 47°17' W 122°26'1 1.2
2017-Aug-09 10:30N 47°18' W 122°26'0 0.1
2017-Aug-09 09:54N 47°18' W 122°26'0 0.0
2017-Aug-09 09:30N 47°18' W 122°26'0 0.0
2017-Aug-09 09:00N 47°18' W 122°26'2 4.3
2017-Aug-09 08:30N 47°16' W 122°24'1 1.3
2017-Aug-09 08:01N 47°16' W 122°23'0 0.0
2017-Aug-09 07:30N 47°16' W 122°23'2 3.1
2017-Aug-09 07:00N 47°17' W 122°25'1 1.1
2017-Aug-09 06:31N 47°17' W 122°25'1 1.7
2017-Aug-09 05:58N 47°18' W 122°26'0 0.3
2017-Aug-09 05:30N 47°18' W 122°26'0 0.0
2017-Aug-09 05:01N 47°18' W 122°26'0 0.0
2017-Aug-09 04:30N 47°18' W 122°26'0 0.1
2017-Aug-09 04:00N 47°18' W 122°26'0 0.1
2017-Aug-09 03:31N 47°18' W 122°26'0 0.1
2017-Aug-09 03:00N 47°18' W 122°26'1 2.0
2017-Aug-09 02:21N 47°17' W 122°25'2 2.5
2017-Aug-09 01:43N 47°16' W 122°23'0 1.4
2017-Aug-09 01:30N 47°16' W 122°23'2 3.2
2017-Aug-09 01:01N 47°17' W 122°25'1 1.7
2017-Aug-09 00:31N 47°17' W 122°26'2 3.2
2017-Aug-08 23:56N 47°15' W 122°26'0 0.0
2017-Aug-08 23:30N 47°15' W 122°26'0 0.0
2017-Aug-08 23:01N 47°15' W 122°26'0 0.0
2017-Aug-08 22:29N 47°15' W 122°26'0 0.0
2017-Aug-08 22:01N 47°15' W 122°26'0 0.0
2017-Aug-08 21:29N 47°15' W 122°26'0 0.0
2017-Aug-08 20:59N 47°15' W 122°26'0 0.0
2017-Aug-08 19:49N 47°15' W 122°26'0 0.0
2017-Aug-08 19:30N 47°15' W 122°26'0 0.0
2017-Aug-08 19:00N 47°15' W 122°26'0 0.0
2017-Aug-08 18:30N 47°15' W 122°26'0 0.0
2017-Aug-08 17:58N 47°15' W 122°26'0 0.0
2017-Aug-08 17:21N 47°15' W 122°26'0 0.0
2017-Aug-08 17:00N 47°15' W 122°26'0 0.0
2017-Aug-08 16:31N 47°15' W 122°26'0 0.0
2017-Aug-08 16:01N 47°15' W 122°26'0 0.0
2017-Aug-08 15:30N 47°15' W 122°26'0 0.0
2017-Aug-08 14:58N 47°15' W 122°26'0 0.0
2017-Aug-08 14:30N 47°15' W 122°26'0 0.0
2017-Aug-08 14:01N 47°15' W 122°26'0 0.0
2017-Aug-08 13:29N 47°15' W 122°26'0 0.0
2017-Aug-08 12:59N 47°15' W 122°26'1 1.5
2017-Aug-08 12:30N 47°16' W 122°26'1 1.9
2017-Aug-08 11:59N 47°16' W 122°25'1 2.4
2017-Aug-08 11:31N 47°17' W 122°26'0 0.2
2017-Aug-08 11:00N 47°17' W 122°26'1 2.0
2017-Aug-08 10:26N 47°16' W 122°25'1 1.8
2017-Aug-08 09:56N 47°16' W 122°24'1 1.4
2017-Aug-08 09:30N 47°16' W 122°23'0 0.1
2017-Aug-08 08:43N 47°16' W 122°23'1 2.6
2017-Aug-08 08:29N 47°16' W 122°24'2 3.4
2017-Aug-08 07:49N 47°18' W 122°26'0 0.0
2017-Aug-08 06:55N 47°18' W 122°26'0 0.0
2017-Aug-08 06:27N 47°18' W 122°26'0 0.0
2017-Aug-08 05:39N 47°18' W 122°26'0 0.0
2017-Aug-08 05:30N 47°18' W 122°26'0 0.0
2017-Aug-08 04:54N 47°18' W 122°26'0 0.0
2017-Aug-08 04:25N 47°18' W 122°26'0 0.0
2017-Aug-08 03:54N 47°18' W 122°26'0 0.1
2017-Aug-08 03:29N 47°18' W 122°26'  

Dump ship's entire track history